Time;durP1;ratioP1;P1;durP2;ratioP2;P2;SDS_P1;SDS_P2;PMS_P1;PMS_P2;Temp;Humidity;BMP_temperature;BMP_pressure;BME280_temperature;BME280_humidity;BME280_pressure;Samples;Min_cycle;Max_cycle;Signal;HPM_P1;HPM_P2
2021/10/23 00:01:01;;;;;;;6.73;3.20;;;;;;;;;;5111834;28;20450;-79
2021/10/23 00:03:28;;;;;;;5.70;3.33;;;;;;;;;;5124554;27;20469;-78
2021/10/23 00:05:55;;;;;;;5.63;3.57;;;;;;;;;;5134016;27;20437;-78
2021/10/23 00:08:23;;;;;;;6.17;3.37;;;;;;;;;;5131798;27;20542;-80
2021/10/23 00:10:50;;;;;;;5.23;3.60;;;;;;;;;;5107565;27;20458;-78
2021/10/23 00:13:17;;;;;;;6.70;3.63;;;;;;;;;;5102598;27;20499;-78
2021/10/23 00:15:45;;;;;;;9.27;3.93;;;;;;;;;;5113423;28;20814;-78
2021/10/23 00:18:13;;;;;;;9.47;4.00;;;;;;;;;;5113695;28;20441;-77
2021/10/23 00:20:40;;;;;;;4.40;3.27;;;;;;;;;;5130797;27;20465;-79
2021/10/23 00:23:07;;;;;;;8.63;3.77;;;;;;;;;;5112953;27;20750;-78
2021/10/23 00:25:35;;;;;;;6.90;3.80;;;;;;;;;;5116343;27;20462;-79
2021/10/23 00:28:02;;;;;;;7.40;4.37;;;;;;;;;;5118991;27;20477;-79
2021/10/23 00:30:29;;;;;;;7.77;4.83;;;;;;;;;;5125698;27;20461;-78
2021/10/23 00:33:01;;;;;;;8.30;4.70;;;;;;;;;;5102167;28;20459;-79
2021/10/23 00:35:30;;;;;;;8.50;4.60;;;;;;;;;;5105400;28;20454;-78
2021/10/23 00:37:57;;;;;;;7.50;4.87;;;;;;;;;;5094426;28;20451;-78
2021/10/23 00:40:25;;;;;;;6.47;3.63;;;;;;;;;;5092405;28;20543;-79
2021/10/23 00:42:54;;;;;;;8.43;5.13;;;;;;;;;;5092828;28;20819;-79
2021/10/23 00:45:21;;;;;;;6.13;4.90;;;;;;;;;;5101318;27;20505;-78
2021/10/23 00:48:00;;;;;;;5.63;4.50;;;;;;;;;;5110871;27;20482;-78
2021/10/23 00:50:27;;;;;;;7.37;4.53;;;;;;;;;;5132740;27;20550;-79
2021/10/23 00:52:56;;;;;;;11.10;4.60;;;;;;;;;;5117476;27;20457;-79
2021/10/23 00:55:25;;;;;;;9.77;5.50;;;;;;;;;;5101381;28;20449;-78
2021/10/23 00:57:53;;;;;;;9.43;5.07;;;;;;;;;;5111788;28;20811;-78
2021/10/23 01:00:20;;;;;;;6.07;5.23;;;;;;;;;;5115016;27;20497;-78
2021/10/23 01:02:47;;;;;;;9.87;5.17;;;;;;;;;;5133607;27;20454;-80
2021/10/23 01:05:14;;;;;;;10.27;6.37;;;;;;;;;;5133711;27;20811;-78
2021/10/23 01:07:42;;;;;;;11.20;5.63;;;;;;;;;;5113860;27;20856;-79
2021/10/23 01:10:12;;;;;;;9.87;6.03;;;;;;;;;;5129661;27;20461;-79
2021/10/23 01:12:43;;;;;;;8.63;4.70;;;;;;;;;;5134857;27;20463;-81
2021/10/23 01:15:23;;;;;;;10.10;5.53;;;;;;;;;;5110783;27;20482;-81
2021/10/23 01:17:51;;;;;;;7.53;5.17;;;;;;;;;;5103801;28;20431;-80
2021/10/23 01:20:21;;;;;;;9.67;5.80;;;;;;;;;;5109601;28;20468;-82
2021/10/23 01:22:49;;;;;;;8.77;6.70;;;;;;;;;;5112428;28;20469;-81
2021/10/23 01:25:16;;;;;;;12.80;7.77;;;;;;;;;;5119275;27;20819;-81
2021/10/23 01:27:43;;;;;;;9.33;6.73;;;;;;;;;;5129611;27;20479;-80
2021/10/23 01:30:12;;;;;;;10.03;6.87;;;;;;;;;;5115805;27;20824;-80
2021/10/23 01:32:40;;;;;;;8.57;6.83;;;;;;;;;;5130792;27;20458;-81
2021/10/23 01:35:08;;;;;;;9.03;6.50;;;;;;;;;;5125479;27;20458;-80
2021/10/23 01:37:37;;;;;;;9.93;6.40;;;;;;;;;;5101310;27;20468;-80
2021/10/23 01:40:05;;;;;;;9.10;6.27;;;;;;;;;;5103200;28;20457;-82
2021/10/23 01:42:32;;;;;;;11.40;7.47;;;;;;;;;;5110124;28;20832;-81
2021/10/23 01:44:59;;;;;;;9.10;6.80;;;;;;;;;;5125109;27;20968;-80
2021/10/23 01:47:27;;;;;;;10.10;7.90;;;;;;;;;;5132451;27;20437;-81
2021/10/23 01:49:54;;;;;;;11.10;7.50;;;;;;;;;;5116150;27;20459;-80
2021/10/23 01:52:22;;;;;;;10.77;6.97;;;;;;;;;;5122045;27;20457;-81
2021/10/23 01:54:50;;;;;;;9.83;7.40;;;;;;;;;;5134172;27;20476;-80
2021/10/23 01:57:18;;;;;;;12.27;7.47;;;;;;;;;;5120185;27;20549;-82
2021/10/23 01:59:45;;;;;;;12.50;6.87;;;;;;;;;;5104985;28;20438;-81
2021/10/23 02:02:13;;;;;;;13.00;8.10;;;;;;;;;;5111229;27;20453;-80
2021/10/23 02:04:40;;;;;;;9.93;7.37;;;;;;;;;;5131448;27;20450;-81
2021/10/23 02:07:08;;;;;;;15.50;8.97;;;;;;;;;;5129192;27;20445;-80
2021/10/23 02:09:35;;;;;;;10.10;7.90;;;;;;;;;;5104822;27;20563;-81
2021/10/23 02:12:04;;;;;;;14.17;8.07;;;;;;;;;;5115074;27;20470;-80
2021/10/23 02:14:31;;;;;;;11.37;7.90;;;;;;;;;;5107382;28;20527;-81
2021/10/23 02:16:58;;;;;;;11.80;8.07;;;;;;;;;;5102049;28;20457;-80
2021/10/23 02:19:25;;;;;;;14.50;8.63;;;;;;;;;;5110115;28;20470;-80
2021/10/23 02:21:52;;;;;;;11.53;7.50;;;;;;;;;;5107752;27;20458;-80
2021/10/23 02:24:20;;;;;;;9.10;7.03;;;;;;;;;;5110033;27;20465;-80
2021/10/23 02:26:47;;;;;;;11.53;8.40;;;;;;;;;;5131866;27;20449;-81
2021/10/23 02:29:15;;;;;;;10.83;8.33;;;;;;;;;;5114188;27;20474;-80
2021/10/23 02:31:43;;;;;;;11.53;9.03;;;;;;;;;;5101822;28;20450;-80
2021/10/23 02:34:10;;;;;;;13.90;9.60;;;;;;;;;;5105409;27;20470;-80
2021/10/23 02:36:37;;;;;;;10.20;8.53;;;;;;;;;;5127910;27;20458;-81
2021/10/23 02:39:05;;;;;;;12.17;9.10;;;;;;;;;;5114704;27;20457;-81
2021/10/23 02:41:32;;;;;;;13.47;9.90;;;;;;;;;;5115824;27;20442;-81
2021/10/23 02:43:59;;;;;;;13.00;9.87;;;;;;;;;;5129975;27;20464;-80
2021/10/23 02:46:28;;;;;;;12.27;9.33;;;;;;;;;;5104473;28;20463;-79
2021/10/23 02:48:55;;;;;;;13.70;9.90;;;;;;;;;;5099820;28;20477;-80
2021/10/23 02:51:22;;;;;;;15.37;10.20;;;;;;;;;;5109398;28;20631;-80
2021/10/23 02:53:50;;;;;;;16.67;10.77;;;;;;;;;;5123712;28;20477;-79
2021/10/23 02:56:18;;;;;;;13.30;11.20;;;;;;;;;;5131385;28;20798;-81
2021/10/23 02:58:45;;;;;;;13.23;10.37;;;;;;;;;;5113427;28;20446;-79
2021/10/23 03:01:12;;;;;;;15.00;11.17;;;;;;;;;;5098450;28;20462;-81
2021/10/23 03:03:41;;;;;;;18.40;11.80;;;;;;;;;;5108600;28;20446;-80
2021/10/23 03:06:08;;;;;;;16.40;11.90;;;;;;;;;;5114375;27;20463;-80
2021/10/23 03:08:37;;;;;;;18.37;12.63;;;;;;;;;;5132583;27;20473;-79
2021/10/23 03:11:04;;;;;;;14.13;10.47;;;;;;;;;;5135758;27;20815;-82
2021/10/23 03:13:31;;;;;;;20.53;13.00;;;;;;;;;;5126478;27;20473;-81
2021/10/23 03:15:58;;;;;;;16.50;11.13;;;;;;;;;;5109953;27;20461;-81
2021/10/23 03:18:26;;;;;;;21.63;13.00;;;;;;;;;;5135476;27;20440;-80
2021/10/23 03:20:55;;;;;;;18.37;12.10;;;;;;;;;;5137437;27;20537;-80
2021/10/23 03:23:22;;;;;;;20.40;13.03;;;;;;;;;;5112155;27;20470;-80
2021/10/23 03:25:49;;;;;;;17.03;12.30;;;;;;;;;;5104977;28;20469;-80
2021/10/23 03:28:17;;;;;;;16.77;12.70;;;;;;;;;;5094772;28;20490;-81
2021/10/23 03:30:44;;;;;;;20.17;13.77;;;;;;;;;;5134506;27;20449;-81
2021/10/23 03:33:11;;;;;;;19.23;13.27;;;;;;;;;;5109306;27;20482;-81
2021/10/23 03:35:39;;;;;;;18.63;13.47;;;;;;;;;;5130253;27;20445;-81
2021/10/23 03:38:07;;;;;;;23.80;13.83;;;;;;;;;;5127848;27;20453;-82
2021/10/23 03:40:35;;;;;;;18.83;12.67;;;;;;;;;;5134221;27;20453;-80
2021/10/23 03:43:04;;;;;;;18.57;13.30;;;;;;;;;;5120026;27;20577;-81
2021/10/23 03:45:32;;;;;;;23.07;13.40;;;;;;;;;;5123448;27;20925;-81
2021/10/23 03:48:00;;;;;;;16.67;13.37;;;;;;;;;;5104215;28;20453;-80
2021/10/23 03:50:27;;;;;;;18.40;13.93;;;;;;;;;;5105377;27;20449;-81
2021/10/23 03:52:55;;;;;;;23.37;15.73;;;;;;;;;;5133056;27;20971;-81
2021/10/23 03:55:23;;;;;;;19.17;13.80;;;;;;;;;;5134641;27;20490;-81
2021/10/23 03:57:51;;;;;;;24.20;13.87;;;;;;;;;;5132136;27;20462;-80
2021/10/23 04:00:18;;;;;;;20.37;14.73;;;;;;;;;;5123116;27;20454;-80
2021/10/23 04:02:45;;;;;;;19.40;13.80;;;;;;;;;;5108562;27;20827;-80
2021/10/23 04:05:13;;;;;;;15.37;12.40;;;;;;;;;;5102249;27;20438;-80
2021/10/23 04:07:40;;;;;;;18.33;12.93;;;;;;;;;;5117574;27;20465;-81
2021/10/23 04:10:08;;;;;;;19.37;14.47;;;;;;;;;;5131402;27;20477;-80
2021/10/23 04:12:36;;;;;;;19.57;14.40;;;;;;;;;;5132476;27;20486;-81
2021/10/23 04:15:04;;;;;;;16.90;13.50;;;;;;;;;;5118803;27;20931;-80
2021/10/23 04:17:31;;;;;;;22.10;14.23;;;;;;;;;;5107419;27;20950;-80
2021/10/23 04:19:58;;;;;;;17.63;13.87;;;;;;;;;;5104008;27;20456;-81
2021/10/23 04:22:26;;;;;;;19.60;13.47;;;;;;;;;;5104401;28;20931;-81
2021/10/23 04:24:53;;;;;;;20.47;12.90;;;;;;;;;;5111033;28;20431;-81
2021/10/23 04:27:21;;;;;;;16.40;12.77;;;;;;;;;;5131884;27;20440;-81
2021/10/23 04:29:49;;;;;;;21.43;13.93;;;;;;;;;;5133585;27;20985;-81
2021/10/23 04:32:16;;;;;;;16.00;12.80;;;;;;;;;;5131407;27;20460;-80
2021/10/23 04:34:44;;;;;;;22.97;14.90;;;;;;;;;;5120118;27;20493;-81
2021/10/23 04:37:12;;;;;;;17.73;13.70;;;;;;;;;;5101656;27;20814;-80
2021/10/23 04:39:39;;;;;;;20.57;14.50;;;;;;;;;;5099109;27;20447;-80
2021/10/23 04:42:06;;;;;;;18.27;13.67;;;;;;;;;;5112735;28;20434;-80
2021/10/23 04:44:35;;;;;;;21.50;15.20;;;;;;;;;;5111145;27;20500;-81
2021/10/23 04:47:04;;;;;;;18.87;14.20;;;;;;;;;;5106588;27;20475;-81
2021/10/23 04:49:31;;;;;;;21.97;14.70;;;;;;;;;;5126810;27;20955;-82
2021/10/23 04:51:58;;;;;;;23.60;14.07;;;;;;;;;;5126130;27;20465;-81
2021/10/23 04:54:25;;;;;;;21.73;16.20;;;;;;;;;;5103894;28;20483;-80
2021/10/23 04:56:53;;;;;;;19.73;13.87;;;;;;;;;;5105993;27;20453;-82
2021/10/23 04:59:20;;;;;;;18.80;14.40;;;;;;;;;;5105658;27;20948;-81
2021/10/23 05:01:47;;;;;;;19.00;13.63;;;;;;;;;;5129930;27;20457;-81
2021/10/23 05:04:16;;;;;;;19.93;14.60;;;;;;;;;;5132928;27;20457;-82
2021/10/23 05:06:43;;;;;;;20.83;14.70;;;;;;;;;;5128345;27;20461;-82
2021/10/23 05:09:10;;;;;;;24.53;15.40;;;;;;;;;;5104240;28;20834;-81
2021/10/23 05:11:38;;;;;;;19.30;13.73;;;;;;;;;;5104475;28;20527;-81
2021/10/23 05:14:05;;;;;;;25.83;13.80;;;;;;;;;;5120507;27;20481;-81
2021/10/23 05:16:32;;;;;;;21.27;15.50;;;;;;;;;;5132625;27;20438;-81
2021/10/23 05:18:59;;;;;;;20.97;15.30;;;;;;;;;;5123085;27;20458;-81
2021/10/23 05:21:28;;;;;;;20.50;15.43;;;;;;;;;;5112256;28;20469;-81
2021/10/23 05:23:57;;;;;;;22.03;14.30;;;;;;;;;;5109561;28;20516;-81
2021/10/23 05:26:24;;;;;;;23.37;14.80;;;;;;;;;;5098645;27;20451;-81
2021/10/23 05:28:51;;;;;;;18.67;15.10;;;;;;;;;;5107681;28;20589;-81
2021/10/23 05:31:20;;;;;;;22.80;14.67;;;;;;;;;;5112230;28;21011;-81
2021/10/23 05:33:47;;;;;;;21.60;14.30;;;;;;;;;;5129091;27;20509;-82
2021/10/23 05:36:14;;;;;;;22.97;14.67;;;;;;;;;;5131596;27;20471;-81
2021/10/23 05:38:43;;;;;;;23.07;14.50;;;;;;;;;;5116478;27;20462;-81
2021/10/23 05:41:10;;;;;;;21.00;14.70;;;;;;;;;;5120231;27;20554;-81
2021/10/23 05:43:37;;;;;;;24.57;15.60;;;;;;;;;;5132357;27;20466;-81
2021/10/23 05:46:05;;;;;;;19.80;14.57;;;;;;;;;;5115495;27;20466;-82
2021/10/23 05:48:32;;;;;;;27.80;14.53;;;;;;;;;;5098608;28;20802;-81
2021/10/23 05:50:59;;;;;;;21.00;14.70;;;;;;;;;;5114561;27;20492;-81
2021/10/23 05:53:26;;;;;;;23.30;14.10;;;;;;;;;;5114744;27;21025;-82
2021/10/23 05:55:55;;;;;;;21.70;15.07;;;;;;;;;;5111066;28;20810;-80
2021/10/23 05:58:22;;;;;;;21.47;14.03;;;;;;;;;;5124916;27;20798;-81
2021/10/23 06:00:54;;;;;;;25.27;13.80;;;;;;;;;;5107920;27;20469;-81
2021/10/23 06:03:23;;;;;;;21.60;14.57;;;;;;;;;;5128154;27;20509;-81
2021/10/23 06:05:50;;;;;;;20.70;13.77;;;;;;;;;;5125100;27;20861;-81
2021/10/23 06:08:17;;;;;;;23.23;14.17;;;;;;;;;;5122715;27;20458;-81
2021/10/23 06:10:45;;;;;;;18.30;12.93;;;;;;;;;;5100775;28;20519;-81
2021/10/23 06:13:15;;;;;;;19.23;13.03;;;;;;;;;;5104290;28;20486;-82
2021/10/23 06:15:42;;;;;;;18.80;12.13;;;;;;;;;;5106058;28;20858;-78
2021/10/23 06:18:09;;;;;;;20.13;14.20;;;;;;;;;;5107850;28;20806;-79
2021/10/23 06:20:36;;;;;;;20.57;12.27;;;;;;;;;;5110770;27;20456;-78
2021/10/23 06:23:04;;;;;;;19.63;13.27;;;;;;;;;;5111099;28;20496;-79
2021/10/23 06:25:31;;;;;;;23.63;13.93;;;;;;;;;;5104230;28;20470;-79
2021/10/23 06:27:59;;;;;;;17.17;12.77;;;;;;;;;;5097100;27;20454;-78
2021/10/23 06:30:27;;;;;;;14.13;11.20;;;;;;;;;;5106888;28;20470;-78
2021/10/23 06:32:56;;;;;;;19.33;13.63;;;;;;;;;;5109347;27;20810;-80
2021/10/23 06:35:23;;;;;;;17.00;12.60;;;;;;;;;;5113755;27;20449;-78
2021/10/23 06:37:51;;;;;;;15.23;10.60;;;;;;;;;;5098264;28;20446;-77
2021/10/23 06:40:21;;;;;;;18.30;11.63;;;;;;;;;;5104979;27;20544;-78
2021/10/23 06:42:48;;;;;;;16.80;11.00;;;;;;;;;;5097970;28;20459;-77
2021/10/23 06:45:16;;;;;;;15.27;11.20;;;;;;;;;;5100653;28;20817;-78
2021/10/23 06:47:44;;;;;;;18.53;11.93;;;;;;;;;;5117617;27;20969;-78
2021/10/23 06:50:12;;;;;;;20.27;10.97;;;;;;;;;;5125157;27;20985;-78
2021/10/23 06:52:40;;;;;;;16.17;11.07;;;;;;;;;;5108455;28;20458;-79
2021/10/23 06:55:07;;;;;;;16.37;10.90;;;;;;;;;;5119385;28;20464;-76
2021/10/23 06:57:35;;;;;;;16.20;11.37;;;;;;;;;;5102928;28;20458;-78
2021/10/23 07:00:02;;;;;;;18.43;11.67;;;;;;;;;;5099687;28;20902;-78
2021/10/23 07:02:29;;;;;;;20.47;12.23;;;;;;;;;;5115236;28;20840;-78
2021/10/23 07:04:58;;;;;;;12.80;9.77;;;;;;;;;;5105340;28;20498;-79
2021/10/23 07:07:25;;;;;;;17.07;10.10;;;;;;;;;;5108996;28;20430;-79
2021/10/23 07:09:52;;;;;;;15.40;10.83;;;;;;;;;;5116513;28;20473;-77
2021/10/23 07:12:19;;;;;;;15.77;10.00;;;;;;;;;;5107909;28;20943;-80
2021/10/23 07:14:47;;;;;;;15.47;11.33;;;;;;;;;;5096599;28;20462;-80
2021/10/23 07:17:14;;;;;;;16.17;11.07;;;;;;;;;;5095563;28;20955;-80
2021/10/23 07:19:43;;;;;;;15.60;11.33;;;;;;;;;;5106495;28;20519;-81
2021/10/23 07:22:11;;;;;;;15.20;10.20;;;;;;;;;;5112363;28;20434;-80
2021/10/23 07:24:39;;;;;;;11.93;8.93;;;;;;;;;;5109430;28;20853;-80
2021/10/23 07:27:06;;;;;;;15.00;9.63;;;;;;;;;;5104693;28;21011;-80
2021/10/23 07:29:33;;;;;;;14.37;10.47;;;;;;;;;;5102536;28;20474;-79
2021/10/23 07:32:00;;;;;;;15.83;10.70;;;;;;;;;;5102871;28;20855;-80
2021/10/23 07:34:27;;;;;;;13.77;10.10;;;;;;;;;;5102268;28;20471;-82
2021/10/23 07:36:55;;;;;;;15.13;9.07;;;;;;;;;;5127772;28;20540;-80
2021/10/23 07:39:23;;;;;;;15.80;9.60;;;;;;;;;;5130792;28;20444;-79
2021/10/23 07:41:51;;;;;;;19.47;10.10;;;;;;;;;;5126097;28;20453;-80
2021/10/23 07:44:18;;;;;;;17.00;12.60;;;;;;;;;;5100672;28;21890;-80
2021/10/23 07:46:46;;;;;;;15.70;12.20;;;;;;;;;;5100115;28;20463;-81
2021/10/23 07:49:13;;;;;;;16.70;12.07;;;;;;;;;;5111908;28;20452;-82
2021/10/23 07:51:40;;;;;;;16.07;10.63;;;;;;;;;;5118651;27;21016;-88
2021/10/23 07:54:08;;;;;;;21.53;12.80;;;;;;;;;;5135069;27;20481;-83
2021/10/23 07:56:37;;;;;;;19.77;11.80;;;;;;;;;;5129493;27;20453;-87
2021/10/23 07:59:04;;;;;;;17.97;10.17;;;;;;;;;;5116825;27;20446;-87
2021/10/23 08:01:31;;;;;;;12.00;9.90;;;;;;;;;;5108468;27;20465;-81
2021/10/23 08:03:59;;;;;;;16.37;9.67;;;;;;;;;;5128553;27;20477;-84
2021/10/23 08:06:26;;;;;;;15.80;9.60;;;;;;;;;;5114950;27;20843;-82
2021/10/23 08:08:54;;;;;;;10.50;8.83;;;;;;;;;;5100757;27;20450;-84
2021/10/23 08:11:22;;;;;;;14.27;9.63;;;;;;;;;;5093611;28;20467;-84
2021/10/23 08:13:51;;;;;;;15.60;8.70;;;;;;;;;;5104621;28;20458;-84
2021/10/23 08:16:18;;;;;;;11.20;8.37;;;;;;;;;;5107222;27;20458;-85
2021/10/23 08:18:45;;;;;;;13.67;9.37;;;;;;;;;;5126988;27;20463;-87
2021/10/23 08:21:12;;;;;;;10.73;7.10;;;;;;;;;;5114247;28;20462;-88
2021/10/23 08:23:40;;;;;;;9.90;7.40;;;;;;;;;;5112803;28;20832;-86
2021/10/23 08:26:07;;;;;;;11.60;8.63;;;;;;;;;;5114105;28;20431;-85
2021/10/23 08:28:36;;;;;;;11.73;9.13;;;;;;;;;;5108037;27;20454;-86
2021/10/23 08:31:05;;;;;;;12.53;8.50;;;;;;;;;;5101504;28;20463;-80
2021/10/23 08:33:32;;;;;;;11.30;8.60;;;;;;;;;;5108952;27;20471;-79
2021/10/23 08:35:59;;;;;;;10.40;8.10;;;;;;;;;;5111821;28;20446;-81
2021/10/23 08:38:27;;;;;;;11.03;7.80;;;;;;;;;;5111358;27;20956;-84
2021/10/23 08:40:54;;;;;;;11.50;8.37;;;;;;;;;;5127566;27;20446;-82
2021/10/23 08:43:22;;;;;;;13.20;8.67;;;;;;;;;;5114123;28;20474;-81
2021/10/23 08:45:51;;;;;;;12.00;9.40;;;;;;;;;;5098501;27;20456;-80
2021/10/23 08:48:20;;;;;;;12.23;8.53;;;;;;;;;;5105231;28;20438;-81
2021/10/23 08:50:48;;;;;;;11.73;8.23;;;;;;;;;;5112592;28;20479;-82
2021/10/23 08:53:20;;;;;;;11.13;7.67;;;;;;;;;;5113121;27;20488;-81
2021/10/23 08:55:50;;;;;;;11.87;8.23;;;;;;;;;;5090809;28;20435;-81
2021/10/23 08:58:17;;;;;;;14.77;8.63;;;;;;;;;;5097131;28;20527;-82
2021/10/23 09:00:46;;;;;;;11.47;8.50;;;;;;;;;;5107851;27;20813;-80
2021/10/23 09:03:13;;;;;;;11.30;7.33;;;;;;;;;;5103107;28;20454;-81
2021/10/23 09:05:42;;;;;;;11.10;7.83;;;;;;;;;;5107320;28;20963;-82
2021/10/23 09:08:12;;;;;;;13.83;9.37;;;;;;;;;;5112507;27;20451;-80
2021/10/23 09:10:41;;;;;;;12.30;8.00;;;;;;;;;;5108398;27;21192;-81
2021/10/23 09:13:08;;;;;;;12.47;7.50;;;;;;;;;;5122180;27;20476;-81
2021/10/23 09:15:37;;;;;;;10.53;6.90;;;;;;;;;;5110251;28;20462;-82
2021/10/23 09:18:04;;;;;;;8.77;6.07;;;;;;;;;;5089939;27;20578;-81
2021/10/23 09:20:37;;;;;;;15.13;7.53;;;;;;;;;;5106949;27;20458;-80
2021/10/23 09:23:05;;;;;;;9.87;6.77;;;;;;;;;;5124810;27;20831;-82
2021/10/23 09:25:35;;;;;;;13.00;7.63;;;;;;;;;;5110672;27;20489;-82
2021/10/23 09:28:03;;;;;;;9.87;6.70;;;;;;;;;;5132759;27;20445;-82
2021/10/23 09:30:33;;;;;;;12.73;7.10;;;;;;;;;;5121276;27;20486;-80
2021/10/23 09:33:04;;;;;;;10.13;6.60;;;;;;;;;;5099622;27;20509;-81
2021/10/23 09:35:32;;;;;;;11.43;7.30;;;;;;;;;;5095474;28;20452;-79
2021/10/23 09:38:00;;;;;;;10.60;7.17;;;;;;;;;;5092391;27;20461;-79
2021/10/23 09:40:29;;;;;;;20.63;11.10;;;;;;;;;;5105341;27;20463;-79
2021/10/23 09:43:11;;;;;;;12.43;6.93;;;;;;;;;;5118017;27;20473;-80
2021/10/23 09:45:40;;;;;;;12.67;7.77;;;;;;;;;;5109734;28;20458;-82
2021/10/23 09:48:08;;;;;;;11.47;7.53;;;;;;;;;;5099137;28;20466;-81
2021/10/23 09:50:36;;;;;;;13.03;7.57;;;;;;;;;;5102447;28;20477;-82
2021/10/23 09:53:05;;;;;;;10.20;6.23;;;;;;;;;;5121508;27;20495;-83
2021/10/23 09:55:34;;;;;;;9.13;6.47;;;;;;;;;;5110635;28;20456;-80
2021/10/23 09:58:10;;;;;;;10.03;5.20;;;;;;;;;;5122938;27;20815;-82
2021/10/23 10:00:38;;;;;;;10.60;6.67;;;;;;;;;;5120295;27;20465;-82
2021/10/23 10:03:05;;;;;;;8.00;5.20;;;;;;;;;;5132328;27;20467;-80
2021/10/23 10:05:33;;;;;;;10.70;6.30;;;;;;;;;;5110132;28;20435;-81
2021/10/23 10:08:01;;;;;;;8.60;5.10;;;;;;;;;;5118666;27;20797;-79
2021/10/23 10:10:28;;;;;;;6.60;5.23;;;;;;;;;;5098050;28;21007;-80
2021/10/23 10:12:57;;;;;;;8.50;6.10;;;;;;;;;;5099435;28;20477;-79
2021/10/23 10:15:24;;;;;;;9.90;6.80;;;;;;;;;;5105878;27;20447;-80
2021/10/23 10:17:53;;;;;;;7.60;5.00;;;;;;;;;;5107208;27;20924;-80
2021/10/23 10:20:20;;;;;;;10.00;5.53;;;;;;;;;;5088939;28;20449;-80
2021/10/23 10:22:57;;;;;;;6.10;4.17;;;;;;;;;;5125784;27;20985;-79
2021/10/23 10:25:25;;;;;;;7.83;4.33;;;;;;;;;;5107231;28;20517;-79
2021/10/23 10:27:53;;;;;;;5.13;3.53;;;;;;;;;;5101231;28;20549;-81
2021/10/23 10:30:24;;;;;;;9.20;4.03;;;;;;;;;;5098679;28;20448;-79
2021/10/23 10:32:52;;;;;;;6.07;3.60;;;;;;;;;;5110807;27;20511;-81
2021/10/23 10:35:55;;;;;;;4.97;3.90;;;;;;;;;;5132239;27;20539;-82
2021/10/23 10:38:41;;;;;;;7.13;3.93;;;;;;;;;;5115880;27;20467;-80
2021/10/23 10:44:05;;;;;;;6.30;4.27;;;;;;;;;;5094316;28;20468;-79
2021/10/23 10:46:47;;;;;;;6.33;3.70;;;;;;;;;;5098189;27;20460;-78
2021/10/23 10:49:30;;;;;;;4.90;4.00;;;;;;;;;;5111363;28;20437;-80
2021/10/23 10:51:58;;;;;;;9.10;4.00;;;;;;;;;;5108024;28;20466;-80
2021/10/23 10:54:25;;;;;;;5.10;3.93;;;;;;;;;;5104681;28;20481;-79
2021/10/23 10:56:53;;;;;;;8.87;6.07;;;;;;;;;;5096842;28;20483;-79
2021/10/23 10:59:35;;;;;;;7.50;4.40;;;;;;;;;;5110754;28;20450;-79
2021/10/23 11:02:07;;;;;;;8.87;3.90;;;;;;;;;;5110016;28;20444;-79
2021/10/23 11:04:34;;;;;;;4.70;3.47;;;;;;;;;;5124829;28;20999;-80
2021/10/23 11:07:03;;;;;;;8.10;4.70;;;;;;;;;;5099788;28;20449;-79
2021/10/23 11:09:31;;;;;;;11.43;4.80;;;;;;;;;;5109945;28;20472;-80
2021/10/23 11:12:13;;;;;;;11.97;4.20;;;;;;;;;;5107519;28;20486;-79
2021/10/23 11:14:40;;;;;;;11.53;5.80;;;;;;;;;;5107235;28;20481;-79
2021/10/23 11:17:15;;;;;;;11.83;5.20;;;;;;;;;;5105522;28;20438;-79
2021/10/23 11:19:43;;;;;;;9.30;3.53;;;;;;;;;;5107434;28;20650;-79
2021/10/23 11:22:14;;;;;;;8.57;4.47;;;;;;;;;;5123320;27;20468;-79
2021/10/23 11:24:43;;;;;;;11.40;4.33;;;;;;;;;;5116438;27;20522;-78
2021/10/23 11:27:10;;;;;;;8.47;4.20;;;;;;;;;;5114288;28;20451;-78
2021/10/23 11:29:40;;;;;;;15.97;5.60;;;;;;;;;;5105989;28;20464;-80
2021/10/23 11:32:07;;;;;;;11.13;5.30;;;;;;;;;;5106943;28;20878;-80
2021/10/23 11:34:35;;;;;;;11.73;5.30;;;;;;;;;;5110994;28;20998;-78
2021/10/23 11:37:02;;;;;;;8.30;4.60;;;;;;;;;;5129071;27;20457;-80
2021/10/23 11:39:34;;;;;;;8.97;5.20;;;;;;;;;;5135669;27;20444;-80
2021/10/23 11:42:15;;;;;;;8.70;4.53;;;;;;;;;;5117542;27;20871;-80
2021/10/23 11:44:43;;;;;;;10.23;4.40;;;;;;;;;;5107089;27;20799;-79
2021/10/23 11:47:11;;;;;;;7.73;4.90;;;;;;;;;;5106108;28;20456;-79
2021/10/23 11:49:38;;;;;;;7.70;4.47;;;;;;;;;;5107623;28;20454;-80
2021/10/23 11:52:07;;;;;;;6.73;3.73;;;;;;;;;;5112346;28;20982;-79
2021/10/23 11:54:43;;;;;;;8.87;5.43;;;;;;;;;;5115412;27;20484;-79
2021/10/23 11:57:10;;;;;;;4.63;3.87;;;;;;;;;;5128907;27;20447;-79
2021/10/23 11:59:37;;;;;;;7.93;3.97;;;;;;;;;;5106303;27;20470;-80
2021/10/23 12:02:13;;;;;;;4.30;3.40;;;;;;;;;;5099161;27;20458;-79
2021/10/23 12:04:40;;;;;;;5.40;3.23;;;;;;;;;;5123591;27;20475;-78
2021/10/23 12:07:07;;;;;;;7.30;3.67;;;;;;;;;;5127746;27;20952;-80
2021/10/23 12:09:36;;;;;;;4.20;3.00;;;;;;;;;;5113305;27;20807;-81
2021/10/23 12:12:04;;;;;;;5.93;3.53;;;;;;;;;;5109397;27;20849;-79
2021/10/23 12:14:31;;;;;;;6.27;3.40;;;;;;;;;;5107056;28;20511;-80
2021/10/23 12:17:00;;;;;;;6.80;3.37;;;;;;;;;;5103450;27;20881;-79
2021/10/23 12:19:34;;;;;;;5.73;3.43;;;;;;;;;;5098450;27;20926;-79
2021/10/23 12:22:08;;;;;;;6.73;3.20;;;;;;;;;;5107680;27;20462;-79
2021/10/23 12:24:38;;;;;;;8.30;3.40;;;;;;;;;;5109958;28;20461;-79
2021/10/23 12:27:06;;;;;;;9.10;3.80;;;;;;;;;;5108919;27;20874;-80
2021/10/23 12:29:38;;;;;;;9.73;5.23;;;;;;;;;;5110059;27;20489;-80
2021/10/23 12:32:06;;;;;;;10.57;6.77;;;;;;;;;;5107742;28;20480;-78
2021/10/23 12:34:48;;;;;;;7.50;5.70;;;;;;;;;;5104154;28;20461;-79
2021/10/23 12:37:18;;;;;;;7.83;5.90;;;;;;;;;;5095982;28;20440;-84
2021/10/23 12:39:46;;;;;;;10.03;6.60;;;;;;;;;;5108011;28;20811;-79
2021/10/23 12:42:13;;;;;;;11.70;6.70;;;;;;;;;;5112781;28;20464;-80
2021/10/23 12:44:41;;;;;;;14.43;6.73;;;;;;;;;;5113629;28;20483;-79
2021/10/23 12:47:08;;;;;;;13.10;6.93;;;;;;;;;;5103799;27;20459;-78
2021/10/23 12:49:35;;;;;;;10.30;6.50;;;;;;;;;;5100122;27;20452;-77
2021/10/23 12:52:02;;;;;;;7.27;5.80;;;;;;;;;;5105540;28;20470;-80
2021/10/23 12:54:29;;;;;;;13.40;6.93;;;;;;;;;;5124631;27;20485;-78
2021/10/23 12:56:58;;;;;;;9.57;6.07;;;;;;;;;;5129737;27;20441;-79
2021/10/23 12:59:25;;;;;;;10.10;5.70;;;;;;;;;;5112573;27;20488;-78
2021/10/23 13:01:52;;;;;;;9.00;6.07;;;;;;;;;;5116652;27;20463;-79
2021/10/23 13:04:20;;;;;;;9.47;6.20;;;;;;;;;;5102483;28;20442;-79
2021/10/23 13:06:47;;;;;;;11.60;6.20;;;;;;;;;;5097965;27;20463;-79
2021/10/23 13:09:14;;;;;;;11.10;6.20;;;;;;;;;;5106818;27;20450;-79
2021/10/23 13:11:42;;;;;;;8.40;5.70;;;;;;;;;;5130827;27;20479;-80
2021/10/23 13:14:11;;;;;;;8.30;5.97;;;;;;;;;;5126968;27;20490;-78
2021/10/23 13:16:38;;;;;;;10.60;6.23;;;;;;;;;;5115594;27;20552;-79
2021/10/23 13:19:05;;;;;;;11.93;6.03;;;;;;;;;;5104100;28;20968;-79
2021/10/23 13:21:32;;;;;;;9.57;6.13;;;;;;;;;;5104584;28;20466;-78
2021/10/23 13:24:00;;;;;;;12.10;6.33;;;;;;;;;;5112720;28;20458;-78
2021/10/23 13:26:27;;;;;;;7.93;5.07;;;;;;;;;;5110771;28;20467;-77
2021/10/23 13:28:54;;;;;;;12.93;5.53;;;;;;;;;;5112317;28;20435;-78
2021/10/23 13:31:22;;;;;;;11.93;5.53;;;;;;;;;;5112254;28;20458;-78
2021/10/23 13:33:50;;;;;;;8.50;5.40;;;;;;;;;;5114226;28;20462;-79
2021/10/23 13:36:17;;;;;;;4.93;4.43;;;;;;;;;;5114075;28;20445;-79
2021/10/23 13:38:44;;;;;;;5.70;4.30;;;;;;;;;;5111949;28;20483;-79
2021/10/23 13:41:11;;;;;;;8.70;4.80;;;;;;;;;;5104675;28;20455;-78
2021/10/23 13:43:39;;;;;;;9.80;4.90;;;;;;;;;;5107410;28;20982;-80
2021/10/23 13:46:06;;;;;;;4.90;4.40;;;;;;;;;;5113373;27;20454;-79
2021/10/23 13:48:34;;;;;;;7.10;4.70;;;;;;;;;;5132452;27;20535;-79
2021/10/23 13:51:02;;;;;;;6.10;4.20;;;;;;;;;;5131348;27;20442;-79
2021/10/23 13:53:29;;;;;;;8.20;4.10;;;;;;;;;;5107239;27;20567;-79
2021/10/23 13:55:56;;;;;;;8.10;4.53;;;;;;;;;;5134563;27;20927;-79
2021/10/23 13:58:23;;;;;;;6.83;3.90;;;;;;;;;;5133801;27;20446;-78
2021/10/23 14:00:51;;;;;;;7.10;4.90;;;;;;;;;;5126102;27;20459;-78
2021/10/23 14:03:21;;;;;;;7.57;4.23;;;;;;;;;;5101040;28;20471;-79
2021/10/23 14:05:50;;;;;;;7.13;4.00;;;;;;;;;;5105496;28;20625;-80
2021/10/23 14:08:17;;;;;;;5.17;3.67;;;;;;;;;;5111547;28;20452;-80
2021/10/23 14:10:45;;;;;;;9.60;4.27;;;;;;;;;;5106385;27;20695;-80
2021/10/23 14:13:12;;;;;;;11.40;3.43;;;;;;;;;;5124328;27;20836;-78
2021/10/23 14:15:41;;;;;;;5.67;3.97;;;;;;;;;;5125340;27;20533;-79
2021/10/23 14:18:09;;;;;;;4.20;3.50;;;;;;;;;;5104422;27;20458;-79
2021/10/23 14:20:36;;;;;;;10.93;4.60;;;;;;;;;;5104825;27;20451;-81
2021/10/23 14:23:08;;;;;;;5.73;3.40;;;;;;;;;;5094091;28;20463;-80
2021/10/23 14:25:36;;;;;;;5.57;3.97;;;;;;;;;;5090839;28;20485;-80
2021/10/23 14:28:10;;;;;;;6.70;4.10;;;;;;;;;;5104531;27;20468;-79
2021/10/23 14:30:37;;;;;;;6.50;3.83;;;;;;;;;;5119669;27;20455;-79
2021/10/23 14:33:04;;;;;;;7.77;4.10;;;;;;;;;;5108323;27;20486;-79
2021/10/23 14:35:32;;;;;;;4.80;3.83;;;;;;;;;;5098665;28;20459;-78
2021/10/23 14:37:59;;;;;;;8.30;4.40;;;;;;;;;;5104476;28;20432;-80
2021/10/23 14:40:27;;;;;;;5.70;3.50;;;;;;;;;;5107655;27;20456;-80